sensor_id;sensor_type;location;lat;lon;timestamp;P1;durP1;ratioP1;P2;durP2;ratioP2
20241;SDS011;10279;46.388;8.116;2023-05-20T00:00:22;0.90;;;0.63;;
20241;SDS011;10279;46.388;8.116;2023-05-20T00:02:50;1.07;;;1.07;;
20241;SDS011;10279;46.388;8.116;2023-05-20T00:05:17;0.37;;;0.37;;
20241;SDS011;10279;46.388;8.116;2023-05-20T00:07:45;0.50;;;0.50;;
20241;SDS011;10279;46.388;8.116;2023-05-20T00:10:12;0.77;;;0.70;;
20241;SDS011;10279;46.388;8.116;2023-05-20T00:12:40;1.37;;;0.90;;
20241;SDS011;10279;46.388;8.116;2023-05-20T00:15:07;2.07;;;1.00;;
20241;SDS011;10279;46.388;8.116;2023-05-20T00:17:37;0.83;;;0.80;;
20241;SDS011;10279;46.388;8.116;2023-05-20T00:20:05;0.37;;;0.37;;
20241;SDS011;10279;46.388;8.116;2023-05-20T00:22:32;1.47;;;0.40;;
20241;SDS011;10279;46.388;8.116;2023-05-20T00:25:00;0.30;;;0.30;;
20241;SDS011;10279;46.388;8.116;2023-05-20T00:27:27;1.17;;;0.47;;
20241;SDS011;10279;46.388;8.116;2023-05-20T00:29:55;1.60;;;0.57;;
20241;SDS011;10279;46.388;8.116;2023-05-20T00:32:23;0.60;;;0.40;;
20241;SDS011;10279;46.388;8.116;2023-05-20T00:34:54;0.40;;;0.30;;
20241;SDS011;10279;46.388;8.116;2023-05-20T00:37:22;0.30;;;0.30;;
20241;SDS011;10279;46.388;8.116;2023-05-20T00:39:50;0.47;;;0.47;;
20241;SDS011;10279;46.388;8.116;2023-05-20T00:42:21;0.50;;;0.50;;
20241;SDS011;10279;46.388;8.116;2023-05-20T00:44:48;0.60;;;0.60;;
20241;SDS011;10279;46.388;8.116;2023-05-20T00:47:16;0.30;;;0.30;;
20241;SDS011;10279;46.388;8.116;2023-05-20T00:49:44;0.57;;;0.43;;
20241;SDS011;10279;46.388;8.116;2023-05-20T00:52:16;0.70;;;0.40;;
20241;SDS011;10279;46.388;8.116;2023-05-20T00:54:44;0.40;;;0.40;;
20241;SDS011;10279;46.388;8.116;2023-05-20T00:57:12;0.20;;;0.20;;
20241;SDS011;10279;46.388;8.116;2023-05-20T00:59:40;0.23;;;0.23;;
20241;SDS011;10279;46.388;8.116;2023-05-20T01:02:10;0.50;;;0.50;;
20241;SDS011;10279;46.388;8.116;2023-05-20T01:04:37;0.50;;;0.30;;
20241;SDS011;10279;46.388;8.116;2023-05-20T01:07:05;0.40;;;0.40;;
20241;SDS011;10279;46.388;8.116;2023-05-20T01:09:32;0.20;;;0.20;;
20241;SDS011;10279;46.388;8.116;2023-05-20T01:14:30;0.40;;;0.40;;
20241;SDS011;10279;46.388;8.116;2023-05-20T01:16:58;0.27;;;0.27;;
20241;SDS011;10279;46.388;8.116;2023-05-20T01:19:30;0.30;;;0.30;;
20241;SDS011;10279;46.388;8.116;2023-05-20T01:22:04;0.30;;;0.30;;
20241;SDS011;10279;46.388;8.116;2023-05-20T01:24:32;1.00;;;0.30;;
20241;SDS011;10279;46.388;8.116;2023-05-20T01:26:59;0.30;;;0.30;;
20241;SDS011;10279;46.388;8.116;2023-05-20T01:29:27;0.50;;;0.43;;
20241;SDS011;10279;46.388;8.116;2023-05-20T01:31:57;0.70;;;0.40;;
20241;SDS011;10279;46.388;8.116;2023-05-20T01:34:26;0.60;;;0.40;;
20241;SDS011;10279;46.388;8.116;2023-05-20T01:36:53;0.13;;;0.13;;
20241;SDS011;10279;46.388;8.116;2023-05-20T01:39:21;2.90;;;0.20;;
20241;SDS011;10279;46.388;8.116;2023-05-20T01:41:50;0.23;;;0.23;;
20241;SDS011;10279;46.388;8.116;2023-05-20T01:44:18;0.30;;;0.30;;
20241;SDS011;10279;46.388;8.116;2023-05-20T01:46:49;0.30;;;0.30;;
20241;SDS011;10279;46.388;8.116;2023-05-20T01:49:16;0.23;;;0.23;;
20241;SDS011;10279;46.388;8.116;2023-05-20T01:51:44;1.50;;;0.40;;
20241;SDS011;10279;46.388;8.116;2023-05-20T01:54:11;0.20;;;0.20;;
20241;SDS011;10279;46.388;8.116;2023-05-20T01:56:39;0.60;;;0.20;;
20241;SDS011;10279;46.388;8.116;2023-05-20T01:59:06;0.30;;;0.30;;
20241;SDS011;10279;46.388;8.116;2023-05-20T02:01:34;0.23;;;0.20;;
20241;SDS011;10279;46.388;8.116;2023-05-20T02:04:01;0.20;;;0.20;;
20241;SDS011;10279;46.388;8.116;2023-05-20T02:06:29;0.20;;;0.20;;
20241;SDS011;10279;46.388;8.116;2023-05-20T02:08:56;0.83;;;0.30;;
20241;SDS011;10279;46.388;8.116;2023-05-20T02:11:23;0.30;;;0.30;;
20241;SDS011;10279;46.388;8.116;2023-05-20T02:13:51;0.43;;;0.30;;
20241;SDS011;10279;46.388;8.116;2023-05-20T02:16:18;0.40;;;0.20;;
20241;SDS011;10279;46.388;8.116;2023-05-20T02:18:46;0.87;;;0.20;;
20241;SDS011;10279;46.388;8.116;2023-05-20T02:21:13;0.83;;;0.20;;
20241;SDS011;10279;46.388;8.116;2023-05-20T02:23:41;0.20;;;0.20;;
20241;SDS011;10279;46.388;8.116;2023-05-20T02:26:08;0.40;;;0.30;;
20241;SDS011;10279;46.388;8.116;2023-05-20T02:28:36;0.33;;;0.30;;
20241;SDS011;10279;46.388;8.116;2023-05-20T02:31:07;0.30;;;0.20;;
20241;SDS011;10279;46.388;8.116;2023-05-20T02:33:34;0.53;;;0.20;;
20241;SDS011;10279;46.388;8.116;2023-05-20T02:36:02;0.30;;;0.30;;
20241;SDS011;10279;46.388;8.116;2023-05-20T02:38:29;0.10;;;0.10;;
20241;SDS011;10279;46.388;8.116;2023-05-20T02:40:57;0.23;;;0.20;;
20241;SDS011;10279;46.388;8.116;2023-05-20T02:43:25;0.20;;;0.20;;
20241;SDS011;10279;46.388;8.116;2023-05-20T02:45:52;0.20;;;0.17;;
20241;SDS011;10279;46.388;8.116;2023-05-20T02:48:20;0.20;;;0.20;;
20241;SDS011;10279;46.388;8.116;2023-05-20T02:50:47;0.73;;;0.20;;
20241;SDS011;10279;46.388;8.116;2023-05-20T02:53:14;0.40;;;0.23;;
20241;SDS011;10279;46.388;8.116;2023-05-20T02:55:42;0.30;;;0.30;;
20241;SDS011;10279;46.388;8.116;2023-05-20T02:58:12;0.20;;;0.20;;
20241;SDS011;10279;46.388;8.116;2023-05-20T03:00:40;0.20;;;0.20;;
20241;SDS011;10279;46.388;8.116;2023-05-20T03:03:08;0.10;;;0.10;;
20241;SDS011;10279;46.388;8.116;2023-05-20T03:05:36;0.73;;;0.20;;
20241;SDS011;10279;46.388;8.116;2023-05-20T03:08:07;0.37;;;0.20;;
20241;SDS011;10279;46.388;8.116;2023-05-20T03:10:35;0.20;;;0.20;;
20241;SDS011;10279;46.388;8.116;2023-05-20T03:13:04;0.30;;;0.20;;
20241;SDS011;10279;46.388;8.116;2023-05-20T03:15:43;0.40;;;0.40;;
20241;SDS011;10279;46.388;8.116;2023-05-20T03:18:12;0.10;;;0.10;;
20241;SDS011;10279;46.388;8.116;2023-05-20T03:20:39;0.90;;;0.30;;
20241;SDS011;10279;46.388;8.116;2023-05-20T03:23:08;0.20;;;0.20;;
20241;SDS011;10279;46.388;8.116;2023-05-20T03:25:36;0.20;;;0.20;;
20241;SDS011;10279;46.388;8.116;2023-05-20T03:28:04;0.13;;;0.13;;
20241;SDS011;10279;46.388;8.116;2023-05-20T03:30:32;1.03;;;0.17;;
20241;SDS011;10279;46.388;8.116;2023-05-20T03:32:59;0.20;;;0.20;;
20241;SDS011;10279;46.388;8.116;2023-05-20T03:35:28;0.20;;;0.20;;
20241;SDS011;10279;46.388;8.116;2023-05-20T03:37:56;0.20;;;0.20;;
20241;SDS011;10279;46.388;8.116;2023-05-20T03:40:24;0.20;;;0.17;;
20241;SDS011;10279;46.388;8.116;2023-05-20T03:42:52;0.30;;;0.30;;
20241;SDS011;10279;46.388;8.116;2023-05-20T03:45:19;0.30;;;0.30;;
20241;SDS011;10279;46.388;8.116;2023-05-20T03:47:47;0.20;;;0.20;;
20241;SDS011;10279;46.388;8.116;2023-05-20T03:50:14;0.30;;;0.30;;
20241;SDS011;10279;46.388;8.116;2023-05-20T03:52:42;0.10;;;0.10;;
20241;SDS011;10279;46.388;8.116;2023-05-20T03:55:10;1.40;;;0.20;;
20241;SDS011;10279;46.388;8.116;2023-05-20T03:57:37;1.03;;;0.10;;
20241;SDS011;10279;46.388;8.116;2023-05-20T04:00:05;0.43;;;0.20;;
20241;SDS011;10279;46.388;8.116;2023-05-20T04:02:37;0.20;;;0.20;;
20241;SDS011;10279;46.388;8.116;2023-05-20T04:05:04;0.87;;;0.30;;
20241;SDS011;10279;46.388;8.116;2023-05-20T04:07:34;0.10;;;0.10;;
20241;SDS011;10279;46.388;8.116;2023-05-20T04:10:02;0.20;;;0.20;;
20241;SDS011;10279;46.388;8.116;2023-05-20T04:12:30;0.10;;;0.10;;
20241;SDS011;10279;46.388;8.116;2023-05-20T04:14:58;0.23;;;0.20;;
20241;SDS011;10279;46.388;8.116;2023-05-20T04:17:29;1.07;;;0.20;;
20241;SDS011;10279;46.388;8.116;2023-05-20T04:19:57;0.67;;;0.23;;
20241;SDS011;10279;46.388;8.116;2023-05-20T04:22:25;0.93;;;0.20;;
20241;SDS011;10279;46.388;8.116;2023-05-20T04:24:53;0.47;;;0.10;;
20241;SDS011;10279;46.388;8.116;2023-05-20T04:27:21;0.20;;;0.13;;
20241;SDS011;10279;46.388;8.116;2023-05-20T04:29:49;0.40;;;0.30;;
20241;SDS011;10279;46.388;8.116;2023-05-20T04:32:18;0.40;;;0.30;;
20241;SDS011;10279;46.388;8.116;2023-05-20T04:34:45;0.37;;;0.20;;
20241;SDS011;10279;46.388;8.116;2023-05-20T04:37:14;0.20;;;0.20;;
20241;SDS011;10279;46.388;8.116;2023-05-20T04:39:41;1.03;;;0.30;;
20241;SDS011;10279;46.388;8.116;2023-05-20T04:42:09;1.17;;;0.10;;
20241;SDS011;10279;46.388;8.116;2023-05-20T04:44:39;0.20;;;0.20;;
20241;SDS011;10279;46.388;8.116;2023-05-20T04:47:07;0.23;;;0.23;;
20241;SDS011;10279;46.388;8.116;2023-05-20T04:49:35;0.20;;;0.20;;
20241;SDS011;10279;46.388;8.116;2023-05-20T04:52:03;0.20;;;0.20;;
20241;SDS011;10279;46.388;8.116;2023-05-20T04:54:31;0.43;;;0.20;;
20241;SDS011;10279;46.388;8.116;2023-05-20T04:56:58;0.20;;;0.20;;
20241;SDS011;10279;46.388;8.116;2023-05-20T04:59:27;0.20;;;0.20;;
20241;SDS011;10279;46.388;8.116;2023-05-20T05:01:54;0.10;;;0.10;;
20241;SDS011;10279;46.388;8.116;2023-05-20T05:04:22;0.13;;;0.13;;
20241;SDS011;10279;46.388;8.116;2023-05-20T05:06:49;0.43;;;0.20;;
20241;SDS011;10279;46.388;8.116;2023-05-20T05:09:16;0.20;;;0.20;;
20241;SDS011;10279;46.388;8.116;2023-05-20T05:11:44;0.20;;;0.20;;
20241;SDS011;10279;46.388;8.116;2023-05-20T05:14:11;0.10;;;0.10;;
20241;SDS011;10279;46.388;8.116;2023-05-20T05:16:39;0.10;;;0.10;;
20241;SDS011;10279;46.388;8.116;2023-05-20T05:19:06;0.20;;;0.20;;
20241;SDS011;10279;46.388;8.116;2023-05-20T05:21:34;0.10;;;0.10;;
20241;SDS011;10279;46.388;8.116;2023-05-20T05:24:01;0.30;;;0.20;;
20241;SDS011;10279;46.388;8.116;2023-05-20T05:26:29;1.20;;;0.27;;
20241;SDS011;10279;46.388;8.116;2023-05-20T05:28:56;0.10;;;0.10;;
20241;SDS011;10279;46.388;8.116;2023-05-20T05:31:24;0.37;;;0.20;;
20241;SDS011;10279;46.388;8.116;2023-05-20T05:33:51;0.20;;;0.20;;
20241;SDS011;10279;46.388;8.116;2023-05-20T05:36:19;0.87;;;0.20;;
20241;SDS011;10279;46.388;8.116;2023-05-20T05:38:46;0.20;;;0.20;;
20241;SDS011;10279;46.388;8.116;2023-05-20T05:41:13;0.40;;;0.27;;
20241;SDS011;10279;46.388;8.116;2023-05-20T05:43:41;0.60;;;0.30;;
20241;SDS011;10279;46.388;8.116;2023-05-20T05:46:08;0.20;;;0.20;;
20241;SDS011;10279;46.388;8.116;2023-05-20T05:48:36;1.30;;;0.10;;
20241;SDS011;10279;46.388;8.116;2023-05-20T05:51:08;0.30;;;0.30;;
20241;SDS011;10279;46.388;8.116;2023-05-20T05:53:35;0.17;;;0.17;;
20241;SDS011;10279;46.388;8.116;2023-05-20T05:56:02;0.20;;;0.20;;
20241;SDS011;10279;46.388;8.116;2023-05-20T05:58:30;0.53;;;0.13;;
20241;SDS011;10279;46.388;8.116;2023-05-20T06:00:58;0.70;;;0.20;;
20241;SDS011;10279;46.388;8.116;2023-05-20T06:03:25;0.20;;;0.20;;
20241;SDS011;10279;46.388;8.116;2023-05-20T06:05:55;0.30;;;0.30;;
20241;SDS011;10279;46.388;8.116;2023-05-20T06:08:22;1.80;;;0.30;;
20241;SDS011;10279;46.388;8.116;2023-05-20T06:10:50;1.03;;;0.30;;
20241;SDS011;10279;46.388;8.116;2023-05-20T06:13:19;0.40;;;0.40;;
20241;SDS011;10279;46.388;8.116;2023-05-20T06:15:49;1.53;;;0.60;;
20241;SDS011;10279;46.388;8.116;2023-05-20T06:18:17;0.30;;;0.30;;
20241;SDS011;10279;46.388;8.116;2023-05-20T06:20:44;0.30;;;0.30;;
20241;SDS011;10279;46.388;8.116;2023-05-20T06:23:11;0.40;;;0.30;;
20241;SDS011;10279;46.388;8.116;2023-05-20T06:25:39;0.23;;;0.20;;
20241;SDS011;10279;46.388;8.116;2023-05-20T06:28:07;0.23;;;0.23;;
20241;SDS011;10279;46.388;8.116;2023-05-20T06:30:34;0.30;;;0.30;;
20241;SDS011;10279;46.388;8.116;2023-05-20T06:33:02;0.60;;;0.20;;
20241;SDS011;10279;46.388;8.116;2023-05-20T06:35:29;0.33;;;0.33;;
20241;SDS011;10279;46.388;8.116;2023-05-20T06:38:00;1.80;;;0.30;;
20241;SDS011;10279;46.388;8.116;2023-05-20T06:40:28;0.40;;;0.40;;
20241;SDS011;10279;46.388;8.116;2023-05-20T06:42:55;0.47;;;0.47;;
20241;SDS011;10279;46.388;8.116;2023-05-20T06:45:22;0.20;;;0.20;;
20241;SDS011;10279;46.388;8.116;2023-05-20T06:47:50;0.20;;;0.20;;
20241;SDS011;10279;46.388;8.116;2023-05-20T06:50:19;0.10;;;0.10;;
20241;SDS011;10279;46.388;8.116;2023-05-20T06:52:47;0.20;;;0.20;;
20241;SDS011;10279;46.388;8.116;2023-05-20T06:55:14;0.30;;;0.30;;
20241;SDS011;10279;46.388;8.116;2023-05-20T06:57:41;0.20;;;0.20;;
20241;SDS011;10279;46.388;8.116;2023-05-20T07:00:10;0.30;;;0.30;;
20241;SDS011;10279;46.388;8.116;2023-05-20T07:02:39;0.30;;;0.30;;
20241;SDS011;10279;46.388;8.116;2023-05-20T07:05:06;0.30;;;0.30;;
20241;SDS011;10279;46.388;8.116;2023-05-20T07:07:34;0.10;;;0.10;;
20241;SDS011;10279;46.388;8.116;2023-05-20T07:10:02;1.60;;;0.20;;
20241;SDS011;10279;46.388;8.116;2023-05-20T07:12:31;0.30;;;0.30;;
20241;SDS011;10279;46.388;8.116;2023-05-20T07:15:02;0.53;;;0.40;;
20241;SDS011;10279;46.388;8.116;2023-05-20T07:17:30;1.00;;;0.90;;
20241;SDS011;10279;46.388;8.116;2023-05-20T07:19:57;1.43;;;1.10;;
20241;SDS011;10279;46.388;8.116;2023-05-20T07:22:25;0.80;;;0.80;;
20241;SDS011;10279;46.388;8.116;2023-05-20T07:24:52;0.60;;;0.60;;
20241;SDS011;10279;46.388;8.116;2023-05-20T07:27:20;0.57;;;0.57;;
20241;SDS011;10279;46.388;8.116;2023-05-20T07:29:47;0.30;;;0.30;;
20241;SDS011;10279;46.388;8.116;2023-05-20T07:32:15;0.30;;;0.30;;
20241;SDS011;10279;46.388;8.116;2023-05-20T07:34:42;0.70;;;0.50;;
20241;SDS011;10279;46.388;8.116;2023-05-20T07:37:10;0.50;;;0.50;;
20241;SDS011;10279;46.388;8.116;2023-05-20T07:39:38;1.23;;;0.50;;
20241;SDS011;10279;46.388;8.116;2023-05-20T07:42:05;1.17;;;0.60;;
20241;SDS011;10279;46.388;8.116;2023-05-20T07:44:33;0.30;;;0.30;;
20241;SDS011;10279;46.388;8.116;2023-05-20T07:47:01;1.40;;;0.60;;
20241;SDS011;10279;46.388;8.116;2023-05-20T07:49:29;0.30;;;0.30;;
20241;SDS011;10279;46.388;8.116;2023-05-20T07:51:56;0.67;;;0.40;;
20241;SDS011;10279;46.388;8.116;2023-05-20T07:54:26;0.40;;;0.40;;
20241;SDS011;10279;46.388;8.116;2023-05-20T07:56:54;2.70;;;0.50;;
20241;SDS011;10279;46.388;8.116;2023-05-20T07:59:21;0.40;;;0.40;;
20241;SDS011;10279;46.388;8.116;2023-05-20T08:01:48;0.57;;;0.33;;
20241;SDS011;10279;46.388;8.116;2023-05-20T08:04:16;0.30;;;0.30;;
20241;SDS011;10279;46.388;8.116;2023-05-20T08:06:43;0.77;;;0.40;;
20241;SDS011;10279;46.388;8.116;2023-05-20T08:09:11;0.20;;;0.20;;
20241;SDS011;10279;46.388;8.116;2023-05-20T08:11:38;0.50;;;0.50;;
20241;SDS011;10279;46.388;8.116;2023-05-20T08:14:06;1.17;;;0.40;;
20241;SDS011;10279;46.388;8.116;2023-05-20T08:16:34;2.30;;;0.40;;
20241;SDS011;10279;46.388;8.116;2023-05-20T08:19:03;1.53;;;0.43;;
20241;SDS011;10279;46.388;8.116;2023-05-20T08:21:30;0.30;;;0.30;;
20241;SDS011;10279;46.388;8.116;2023-05-20T08:23:58;0.20;;;0.20;;
20241;SDS011;10279;46.388;8.116;2023-05-20T08:26:26;0.30;;;0.30;;
20241;SDS011;10279;46.388;8.116;2023-05-20T08:28:53;0.30;;;0.20;;
20241;SDS011;10279;46.388;8.116;2023-05-20T08:31:21;0.27;;;0.27;;
20241;SDS011;10279;46.388;8.116;2023-05-20T08:33:48;2.83;;;0.43;;
20241;SDS011;10279;46.388;8.116;2023-05-20T08:36:16;0.30;;;0.30;;
20241;SDS011;10279;46.388;8.116;2023-05-20T08:38:44;0.20;;;0.20;;
20241;SDS011;10279;46.388;8.116;2023-05-20T08:41:12;0.53;;;0.30;;
20241;SDS011;10279;46.388;8.116;2023-05-20T08:43:39;0.20;;;0.20;;
20241;SDS011;10279;46.388;8.116;2023-05-20T08:46:07;0.40;;;0.40;;
20241;SDS011;10279;46.388;8.116;2023-05-20T08:48:35;0.40;;;0.40;;
20241;SDS011;10279;46.388;8.116;2023-05-20T08:51:03;0.40;;;0.40;;
20241;SDS011;10279;46.388;8.116;2023-05-20T08:53:32;0.30;;;0.30;;
20241;SDS011;10279;46.388;8.116;2023-05-20T08:56:00;0.30;;;0.30;;
20241;SDS011;10279;46.388;8.116;2023-05-20T08:58:29;0.57;;;0.40;;
20241;SDS011;10279;46.388;8.116;2023-05-20T09:00:57;0.83;;;0.20;;
20241;SDS011;10279;46.388;8.116;2023-05-20T09:03:25;0.20;;;0.20;;
20241;SDS011;10279;46.388;8.116;2023-05-20T09:05:52;0.20;;;0.20;;
20241;SDS011;10279;46.388;8.116;2023-05-20T09:08:23;1.03;;;0.20;;
20241;SDS011;10279;46.388;8.116;2023-05-20T09:10:52;0.20;;;0.20;;
20241;SDS011;10279;46.388;8.116;2023-05-20T09:13:19;0.10;;;0.10;;
20241;SDS011;10279;46.388;8.116;2023-05-20T09:15:49;0.53;;;0.20;;
20241;SDS011;10279;46.388;8.116;2023-05-20T09:18:17;0.20;;;0.20;;
20241;SDS011;10279;46.388;8.116;2023-05-20T09:20:46;0.43;;;0.23;;
20241;SDS011;10279;46.388;8.116;2023-05-20T09:23:14;0.20;;;0.13;;
20241;SDS011;10279;46.388;8.116;2023-05-20T09:25:42;0.10;;;0.10;;
20241;SDS011;10279;46.388;8.116;2023-05-20T09:28:09;0.20;;;0.20;;
20241;SDS011;10279;46.388;8.116;2023-05-20T09:30:37;0.10;;;0.10;;
20241;SDS011;10279;46.388;8.116;2023-05-20T09:33:04;0.30;;;0.30;;
20241;SDS011;10279;46.388;8.116;2023-05-20T09:35:35;0.28;;;0.28;;
20241;SDS011;10279;46.388;8.116;2023-05-20T09:38:03;0.60;;;0.30;;
20241;SDS011;10279;46.388;8.116;2023-05-20T09:40:32;0.20;;;0.20;;
20241;SDS011;10279;46.388;8.116;2023-05-20T09:43:04;0.20;;;0.20;;
20241;SDS011;10279;46.388;8.116;2023-05-20T09:45:36;1.10;;;0.20;;
20241;SDS011;10279;46.388;8.116;2023-05-20T09:48:05;0.43;;;0.10;;
20241;SDS011;10279;46.388;8.116;2023-05-20T09:50:34;0.45;;;0.20;;
20241;SDS011;10279;46.388;8.116;2023-05-20T09:53:03;0.15;;;0.15;;
20241;SDS011;10279;46.388;8.116;2023-05-20T09:55:31;0.10;;;0.10;;
20241;SDS011;10279;46.388;8.116;2023-05-20T09:58:01;0.20;;;0.20;;
20241;SDS011;10279;46.388;8.116;2023-05-20T10:00:28;0.80;;;0.10;;
20241;SDS011;10279;46.388;8.116;2023-05-20T10:02:56;0.10;;;0.10;;
20241;SDS011;10279;46.388;8.116;2023-05-20T10:05:28;0.10;;;0.10;;
20241;SDS011;10279;46.388;8.116;2023-05-20T10:18:18;0.10;;;0.10;;
20241;SDS011;10279;46.388;8.116;2023-05-20T10:20:50;0.10;;;0.10;;
20241;SDS011;10279;46.388;8.116;2023-05-20T10:23:21;0.10;;;0.10;;
20241;SDS011;10279;46.388;8.116;2023-05-20T10:25:53;0.10;;;0.10;;
20241;SDS011;10279;46.388;8.116;2023-05-20T10:28:33;0.10;;;0.10;;
20241;SDS011;10279;46.388;8.116;2023-05-20T10:31:02;0.10;;;0.10;;
20241;SDS011;10279;46.388;8.116;2023-05-20T10:33:30;0.13;;;0.13;;
20241;SDS011;10279;46.388;8.116;2023-05-20T10:36:07;0.10;;;0.10;;
20241;SDS011;10279;46.388;8.116;2023-05-20T10:38:34;0.10;;;0.10;;
20241;SDS011;10279;46.388;8.116;2023-05-20T10:41:08;0.10;;;0.10;;
20241;SDS011;10279;46.388;8.116;2023-05-20T10:43:39;0.10;;;0.10;;
20241;SDS011;10279;46.388;8.116;2023-05-20T10:46:16;0.10;;;0.10;;
20241;SDS011;10279;46.388;8.116;2023-05-20T10:49:00;0.08;;;0.08;;
20241;SDS011;10279;46.388;8.116;2023-05-20T10:51:29;0.10;;;0.10;;
20241;SDS011;10279;46.388;8.116;2023-05-20T10:54:01;0.05;;;0.05;;
20241;SDS011;10279;46.388;8.116;2023-05-20T10:56:28;0.98;;;0.10;;
20241;SDS011;10279;46.388;8.116;2023-05-20T10:58:56;1.00;;;0.10;;
20241;SDS011;10279;46.388;8.116;2023-05-20T11:01:25;0.30;;;0.20;;
20241;SDS011;10279;46.388;8.116;2023-05-20T11:03:53;0.10;;;0.10;;
20241;SDS011;10279;46.388;8.116;2023-05-20T11:06:25;0.10;;;0.10;;
20241;SDS011;10279;46.388;8.116;2023-05-20T11:08:54;0.10;;;0.10;;
20241;SDS011;10279;46.388;8.116;2023-05-20T11:11:21;0.30;;;0.20;;
20241;SDS011;10279;46.388;8.116;2023-05-20T11:13:49;0.10;;;0.10;;
20241;SDS011;10279;46.388;8.116;2023-05-20T11:16:19;0.10;;;0.10;;
20241;SDS011;10279;46.388;8.116;2023-05-20T11:18:48;0.15;;;0.15;;
20241;SDS011;10279;46.388;8.116;2023-05-20T11:21:17;0.10;;;0.10;;
20241;SDS011;10279;46.388;8.116;2023-05-20T11:23:45;0.10;;;0.10;;
20241;SDS011;10279;46.388;8.116;2023-05-20T11:26:13;0.82;;;0.10;;
20241;SDS011;10279;46.388;8.116;2023-05-20T11:28:40;0.10;;;0.10;;
20241;SDS011;10279;46.388;8.116;2023-05-20T11:31:08;0.00;;;0.00;;
20241;SDS011;10279;46.388;8.116;2023-05-20T11:33:39;0.00;;;0.00;;
20241;SDS011;10279;46.388;8.116;2023-05-20T11:36:08;0.10;;;0.10;;
20241;SDS011;10279;46.388;8.116;2023-05-20T11:38:52;0.10;;;0.10;;
20241;SDS011;10279;46.388;8.116;2023-05-20T11:41:26;0.10;;;0.10;;
20241;SDS011;10279;46.388;8.116;2023-05-20T11:43:57;0.10;;;0.10;;
20241;SDS011;10279;46.388;8.116;2023-05-20T11:46:25;0.10;;;0.10;;
20241;SDS011;10279;46.388;8.116;2023-05-20T11:48:53;0.10;;;0.10;;
20241;SDS011;10279;46.388;8.116;2023-05-20T11:51:27;0.10;;;0.10;;
20241;SDS011;10279;46.388;8.116;2023-05-20T11:53:59;0.10;;;0.10;;
20241;SDS011;10279;46.388;8.116;2023-05-20T11:56:29;0.10;;;0.10;;
20241;SDS011;10279;46.388;8.116;2023-05-20T11:59:00;0.10;;;0.10;;
20241;SDS011;10279;46.388;8.116;2023-05-20T12:01:29;0.20;;;0.20;;
20241;SDS011;10279;46.388;8.116;2023-05-20T12:03:56;0.10;;;0.10;;
20241;SDS011;10279;46.388;8.116;2023-05-20T12:06:24;0.10;;;0.10;;
20241;SDS011;10279;46.388;8.116;2023-05-20T12:08:52;0.10;;;0.10;;
20241;SDS011;10279;46.388;8.116;2023-05-20T12:11:19;0.10;;;0.10;;
20241;SDS011;10279;46.388;8.116;2023-05-20T12:13:47;0.15;;;0.10;;
20241;SDS011;10279;46.388;8.116;2023-05-20T12:16:14;0.10;;;0.10;;
20241;SDS011;10279;46.388;8.116;2023-05-20T12:18:42;0.10;;;0.10;;
20241;SDS011;10279;46.388;8.116;2023-05-20T12:21:10;0.10;;;0.10;;
20241;SDS011;10279;46.388;8.116;2023-05-20T12:23:38;0.30;;;0.10;;
20241;SDS011;10279;46.388;8.116;2023-05-20T12:26:05;0.10;;;0.10;;
20241;SDS011;10279;46.388;8.116;2023-05-20T12:28:33;0.20;;;0.20;;
20241;SDS011;10279;46.388;8.116;2023-05-20T12:31:00;0.10;;;0.10;;
20241;SDS011;10279;46.388;8.116;2023-05-20T12:33:28;0.10;;;0.10;;
20241;SDS011;10279;46.388;8.116;2023-05-20T12:35:55;0.10;;;0.10;;
20241;SDS011;10279;46.388;8.116;2023-05-20T12:38:23;0.03;;;0.03;;
20241;SDS011;10279;46.388;8.116;2023-05-20T12:40:50;0.10;;;0.10;;
20241;SDS011;10279;46.388;8.116;2023-05-20T12:43:18;0.10;;;0.10;;
20241;SDS011;10279;46.388;8.116;2023-05-20T12:45:45;0.00;;;0.00;;
20241;SDS011;10279;46.388;8.116;2023-05-20T12:48:12;0.45;;;0.10;;
20241;SDS011;10279;46.388;8.116;2023-05-20T12:50:40;0.10;;;0.10;;
20241;SDS011;10279;46.388;8.116;2023-05-20T12:53:07;0.10;;;0.10;;
20241;SDS011;10279;46.388;8.116;2023-05-20T12:55:35;0.10;;;0.10;;
20241;SDS011;10279;46.388;8.116;2023-05-20T12:58:04;0.10;;;0.10;;
20241;SDS011;10279;46.388;8.116;2023-05-20T13:00:31;0.10;;;0.10;;
20241;SDS011;10279;46.388;8.116;2023-05-20T13:02:59;0.10;;;0.10;;
20241;SDS011;10279;46.388;8.116;2023-05-20T13:05:26;0.10;;;0.10;;
20241;SDS011;10279;46.388;8.116;2023-05-20T13:07:54;0.30;;;0.10;;
20241;SDS011;10279;46.388;8.116;2023-05-20T13:10:21;0.00;;;0.00;;
20241;SDS011;10279;46.388;8.116;2023-05-20T13:12:52;0.10;;;0.10;;
20241;SDS011;10279;46.388;8.116;2023-05-20T13:15:19;0.10;;;0.10;;
20241;SDS011;10279;46.388;8.116;2023-05-20T13:17:47;0.20;;;0.20;;
20241;SDS011;10279;46.388;8.116;2023-05-20T13:20:14;0.10;;;0.10;;
20241;SDS011;10279;46.388;8.116;2023-05-20T13:22:45;0.00;;;0.00;;
20241;SDS011;10279;46.388;8.116;2023-05-20T13:25:13;0.10;;;0.10;;
20241;SDS011;10279;46.388;8.116;2023-05-20T13:27:40;0.00;;;0.00;;
20241;SDS011;10279;46.388;8.116;2023-05-20T13:30:08;0.10;;;0.10;;
20241;SDS011;10279;46.388;8.116;2023-05-20T13:32:36;0.17;;;0.10;;
20241;SDS011;10279;46.388;8.116;2023-05-20T13:35:03;1.30;;;0.20;;
20241;SDS011;10279;46.388;8.116;2023-05-20T13:37:31;0.10;;;0.10;;
20241;SDS011;10279;46.388;8.116;2023-05-20T13:39:58;0.10;;;0.10;;
20241;SDS011;10279;46.388;8.116;2023-05-20T13:42:26;0.10;;;0.10;;
20241;SDS011;10279;46.388;8.116;2023-05-20T13:44:53;0.10;;;0.10;;
20241;SDS011;10279;46.388;8.116;2023-05-20T13:47:21;0.07;;;0.07;;
20241;SDS011;10279;46.388;8.116;2023-05-20T13:49:48;0.10;;;0.10;;
20241;SDS011;10279;46.388;8.116;2023-05-20T13:52:16;0.10;;;0.10;;
20241;SDS011;10279;46.388;8.116;2023-05-20T13:54:43;0.10;;;0.10;;
20241;SDS011;10279;46.388;8.116;2023-05-20T13:57:13;0.10;;;0.10;;
20241;SDS011;10279;46.388;8.116;2023-05-20T13:59:40;0.30;;;0.10;;
20241;SDS011;10279;46.388;8.116;2023-05-20T14:02:08;0.10;;;0.10;;
20241;SDS011;10279;46.388;8.116;2023-05-20T14:04:36;0.30;;;0.10;;
20241;SDS011;10279;46.388;8.116;2023-05-20T14:07:05;0.10;;;0.10;;
20241;SDS011;10279;46.388;8.116;2023-05-20T14:09:35;0.13;;;0.10;;
20241;SDS011;10279;46.388;8.116;2023-05-20T14:12:03;0.10;;;0.10;;
20241;SDS011;10279;46.388;8.116;2023-05-20T14:14:31;0.10;;;0.10;;
20241;SDS011;10279;46.388;8.116;2023-05-20T14:16:58;0.50;;;0.20;;
20241;SDS011;10279;46.388;8.116;2023-05-20T14:19:26;0.10;;;0.10;;
20241;SDS011;10279;46.388;8.116;2023-05-20T14:21:54;0.20;;;0.20;;
20241;SDS011;10279;46.388;8.116;2023-05-20T14:24:24;0.37;;;0.20;;
20241;SDS011;10279;46.388;8.116;2023-05-20T14:26:52;0.40;;;0.20;;
20241;SDS011;10279;46.388;8.116;2023-05-20T14:29:19;0.10;;;0.10;;
20241;SDS011;10279;46.388;8.116;2023-05-20T14:31:46;0.10;;;0.10;;
20241;SDS011;10279;46.388;8.116;2023-05-20T14:34:14;2.27;;;0.30;;
20241;SDS011;10279;46.388;8.116;2023-05-20T14:36:41;0.10;;;0.10;;
20241;SDS011;10279;46.388;8.116;2023-05-20T14:39:09;1.83;;;0.17;;
20241;SDS011;10279;46.388;8.116;2023-05-20T14:41:37;0.37;;;0.30;;
20241;SDS011;10279;46.388;8.116;2023-05-20T14:44:04;0.10;;;0.10;;
20241;SDS011;10279;46.388;8.116;2023-05-20T14:46:32;2.00;;;0.10;;
20241;SDS011;10279;46.388;8.116;2023-05-20T14:49:00;0.30;;;0.10;;
20241;SDS011;10279;46.388;8.116;2023-05-20T14:51:27;0.10;;;0.10;;
20241;SDS011;10279;46.388;8.116;2023-05-20T14:53:55;0.10;;;0.10;;
20241;SDS011;10279;46.388;8.116;2023-05-20T14:56:22;0.10;;;0.10;;
20241;SDS011;10279;46.388;8.116;2023-05-20T14:58:49;0.20;;;0.20;;
20241;SDS011;10279;46.388;8.116;2023-05-20T15:01:17;0.67;;;0.23;;
20241;SDS011;10279;46.388;8.116;2023-05-20T15:03:44;0.10;;;0.10;;
20241;SDS011;10279;46.388;8.116;2023-05-20T15:06:12;0.20;;;0.20;;